sensor_id;sensor_type;location;lat;lon;timestamp;pressure;altitude;pressure_sealevel;temperature;humidity
32642;BME280;19323;56.072;9.698;2023-03-05T00:01:45;100678.41;;;25.72;34.85
32642;BME280;19323;56.072;9.698;2023-03-05T00:04:11;100672.22;;;25.72;35.11
32642;BME280;19323;56.072;9.698;2023-03-05T00:06:37;100675.59;;;25.74;34.90
32642;BME280;19323;56.072;9.698;2023-03-05T00:09:03;100678.28;;;25.74;34.86
32642;BME280;19323;56.072;9.698;2023-03-05T00:11:29;100664.00;;;25.73;34.81
32642;BME280;19323;56.072;9.698;2023-03-05T00:13:55;100665.69;;;25.74;34.91
32642;BME280;19323;56.072;9.698;2023-03-05T00:16:21;100668.38;;;25.74;35.02
32642;BME280;19323;56.072;9.698;2023-03-05T00:18:46;100664.00;;;25.73;34.91
32642;BME280;19323;56.072;9.698;2023-03-05T00:21:25;100664.00;;;25.73;34.68
32642;BME280;19323;56.072;9.698;2023-03-05T00:23:51;100662.19;;;25.74;34.78
32642;BME280;19323;56.072;9.698;2023-03-05T00:26:17;100661.50;;;25.72;34.83
32642;BME280;19323;56.072;9.698;2023-03-05T00:28:42;100658.81;;;25.72;34.76
32642;BME280;19323;56.072;9.698;2023-03-05T00:31:07;100657.13;;;25.70;34.58
32642;BME280;19323;56.072;9.698;2023-03-05T00:33:32;100654.44;;;25.70;34.64
32642;BME280;19323;56.072;9.698;2023-03-05T00:35:57;100654.59;;;25.69;34.63
32642;BME280;19323;56.072;9.698;2023-03-05T00:38:25;100644.72;;;25.69;34.72
32642;BME280;19323;56.072;9.698;2023-03-05T00:40:50;100643.03;;;25.68;34.83
32642;BME280;19323;56.072;9.698;2023-03-05T00:43:16;100643.84;;;25.69;34.46
32642;BME280;19323;56.072;9.698;2023-03-05T00:45:41;100642.03;;;25.69;34.69
32642;BME280;19323;56.072;9.698;2023-03-05T00:48:06;100642.03;;;25.69;34.77
32642;BME280;19323;56.072;9.698;2023-03-05T00:50:31;100637.66;;;25.68;35.04
32642;BME280;19323;56.072;9.698;2023-03-05T00:52:56;100637.66;;;25.68;35.03
32642;BME280;19323;56.072;9.698;2023-03-05T00:55:22;100640.50;;;25.67;34.56
32642;BME280;19323;56.072;9.698;2023-03-05T00:57:47;100641.50;;;25.66;34.57
32642;BME280;19323;56.072;9.698;2023-03-05T01:00:13;100633.47;;;25.66;34.64
32642;BME280;19323;56.072;9.698;2023-03-05T01:02:38;100629.13;;;25.65;34.54
32642;BME280;19323;56.072;9.698;2023-03-05T01:05:03;100592.00;;;25.44;34.89
32642;BME280;19323;56.072;9.698;2023-03-05T01:07:28;100624.59;;;25.65;34.74
32642;BME280;19323;56.072;9.698;2023-03-05T01:09:54;100628.09;;;25.66;34.80
32642;BME280;19323;56.072;9.698;2023-03-05T01:12:19;100628.09;;;25.66;34.66
32642;BME280;19323;56.072;9.698;2023-03-05T01:14:44;100620.22;;;25.64;34.58
32642;BME280;19323;56.072;9.698;2023-03-05T01:17:09;100621.22;;;25.63;34.65
32642;BME280;19323;56.072;9.698;2023-03-05T01:19:34;100623.91;;;25.63;34.99
32642;BME280;19323;56.072;9.698;2023-03-05T01:21:59;100619.38;;;25.64;34.66
32642;BME280;19323;56.072;9.698;2023-03-05T01:24:25;100623.06;;;25.63;34.80
32642;BME280;19323;56.072;9.698;2023-03-05T01:26:50;100616.00;;;25.62;34.88
32642;BME280;19323;56.072;9.698;2023-03-05T01:29:15;100611.47;;;25.62;34.60
32642;BME280;19323;56.072;9.698;2023-03-05T01:31:40;100611.47;;;25.62;34.42
32642;BME280;19323;56.072;9.698;2023-03-05T01:34:05;100608.78;;;25.62;34.71
32642;BME280;19323;56.072;9.698;2023-03-05T01:36:31;100602.75;;;25.60;34.76
32642;BME280;19323;56.072;9.698;2023-03-05T01:38:56;100594.06;;;25.58;34.79
32642;BME280;19323;56.072;9.698;2023-03-05T01:41:21;100601.09;;;25.59;34.53
32642;BME280;19323;56.072;9.698;2023-03-05T01:43:47;100599.44;;;25.58;34.71
32642;BME280;19323;56.072;9.698;2023-03-05T01:48:48;100592.38;;;25.57;34.62
32642;BME280;19323;56.072;9.698;2023-03-05T01:51:14;100588.03;;;25.56;34.53
32642;BME280;19323;56.072;9.698;2023-03-05T01:53:40;100583.63;;;25.55;34.53
32642;BME280;19323;56.072;9.698;2023-03-05T01:56:05;100583.63;;;25.55;34.56
32642;BME280;19323;56.072;9.698;2023-03-05T01:58:30;100557.94;;;25.36;34.45
32642;BME280;19323;56.072;9.698;2023-03-05T02:00:56;100577.59;;;25.53;34.72
32642;BME280;19323;56.072;9.698;2023-03-05T02:03:21;100577.59;;;25.53;34.58
32642;BME280;19323;56.072;9.698;2023-03-05T02:05:47;100567.88;;;25.52;34.61
32642;BME280;19323;56.072;9.698;2023-03-05T02:08:13;100574.09;;;25.53;34.44
32642;BME280;19323;56.072;9.698;2023-03-05T02:10:40;100570.38;;;25.54;34.46
32642;BME280;19323;56.072;9.698;2023-03-05T02:13:07;100559.84;;;25.52;34.69
32642;BME280;19323;56.072;9.698;2023-03-05T02:15:33;100553.81;;;25.50;34.65
32642;BME280;19323;56.072;9.698;2023-03-05T02:17:58;100558.34;;;25.49;34.58
32642;BME280;19323;56.072;9.698;2023-03-05T02:20:25;100561.00;;;25.49;34.42
32642;BME280;19323;56.072;9.698;2023-03-05T02:22:51;100555.81;;;25.48;34.39
32642;BME280;19323;56.072;9.698;2023-03-05T02:27:42;100556.63;;;25.48;34.70
32642;BME280;19323;56.072;9.698;2023-03-05T02:30:08;100551.44;;;25.47;34.57
32642;BME280;19323;56.072;9.698;2023-03-05T02:32:34;100553.13;;;25.48;34.56
32642;BME280;19323;56.072;9.698;2023-03-05T02:34:59;100549.63;;;25.47;34.47
32642;BME280;19323;56.072;9.698;2023-03-05T02:37:24;100550.59;;;25.46;34.36
32642;BME280;19323;56.072;9.698;2023-03-05T02:39:49;100545.22;;;25.46;34.50
32642;BME280;19323;56.072;9.698;2023-03-05T02:42:14;100548.94;;;25.45;34.65
32642;BME280;19323;56.072;9.698;2023-03-05T02:44:39;100545.38;;;25.45;34.51
32642;BME280;19323;56.072;9.698;2023-03-05T02:47:05;100543.56;;;25.45;34.50
32642;BME280;19323;56.072;9.698;2023-03-05T02:49:30;100551.63;;;25.45;34.58
32642;BME280;19323;56.072;9.698;2023-03-05T02:51:56;100544.56;;;25.44;34.73
32642;BME280;19323;56.072;9.698;2023-03-05T02:54:21;100547.25;;;25.44;34.36
32642;BME280;19323;56.072;9.698;2023-03-05T02:56:46;100551.78;;;25.44;34.40
32642;BME280;19323;56.072;9.698;2023-03-05T02:59:11;100545.72;;;25.42;34.52
32642;BME280;19323;56.072;9.698;2023-03-05T03:01:36;100542.03;;;25.43;34.43
32642;BME280;19323;56.072;9.698;2023-03-05T03:04:01;100531.31;;;25.43;34.34
32642;BME280;19323;56.072;9.698;2023-03-05T03:06:26;100536.84;;;25.41;34.52
32642;BME280;19323;56.072;9.698;2023-03-05T03:08:52;100528.81;;;25.41;34.50
32642;BME280;19323;56.072;9.698;2023-03-05T03:11:17;100530.66;;;25.41;34.51
32642;BME280;19323;56.072;9.698;2023-03-05T03:13:42;100531.66;;;25.40;34.54
32642;BME280;19323;56.072;9.698;2023-03-05T03:16:08;100533.34;;;25.41;34.34
32642;BME280;19323;56.072;9.698;2023-03-05T03:18:34;100534.31;;;25.40;34.47
32642;BME280;19323;56.072;9.698;2023-03-05T03:20:59;100527.97;;;25.41;34.25
32642;BME280;19323;56.072;9.698;2023-03-05T03:23:24;100524.44;;;25.40;34.59
32642;BME280;19323;56.072;9.698;2023-03-05T03:25:50;100518.25;;;25.40;34.30
32642;BME280;19323;56.072;9.698;2023-03-05T03:28:15;100517.41;;;25.39;34.46
32642;BME280;19323;56.072;9.698;2023-03-05T03:30:40;100514.88;;;25.38;34.54
32642;BME280;19323;56.072;9.698;2023-03-05T03:33:05;100506.00;;;25.37;34.54
32642;BME280;19323;56.072;9.698;2023-03-05T03:35:31;100505.16;;;25.37;34.50
32642;BME280;19323;56.072;9.698;2023-03-05T03:37:56;100510.53;;;25.37;34.52
32642;BME280;19323;56.072;9.698;2023-03-05T03:40:21;100511.53;;;25.36;34.64
32642;BME280;19323;56.072;9.698;2023-03-05T03:42:46;100504.50;;;25.35;34.37
32642;BME280;19323;56.072;9.698;2023-03-05T03:45:12;100496.25;;;25.36;34.48
32642;BME280;19323;56.072;9.698;2023-03-05T03:47:37;100497.44;;;25.34;34.62
32642;BME280;19323;56.072;9.698;2023-03-05T03:50:02;100502.66;;;25.35;34.54
32642;BME280;19323;56.072;9.698;2023-03-05T03:52:28;100499.13;;;25.35;34.65
32642;BME280;19323;56.072;9.698;2023-03-05T03:54:53;100496.44;;;25.35;34.61
32642;BME280;19323;56.072;9.698;2023-03-05T03:57:25;100491.09;;;25.35;34.46
32642;BME280;19323;56.072;9.698;2023-03-05T03:59:50;100493.78;;;25.35;34.24
32642;BME280;19323;56.072;9.698;2023-03-05T04:02:15;100492.91;;;25.34;34.31
32642;BME280;19323;56.072;9.698;2023-03-05T04:04:40;100493.94;;;25.33;34.43
32642;BME280;19323;56.072;9.698;2023-03-05T04:07:06;100487.72;;;25.33;34.52
32642;BME280;19323;56.072;9.698;2023-03-05T04:09:31;100489.41;;;25.34;34.43
32642;BME280;19323;56.072;9.698;2023-03-05T04:11:56;100485.06;;;25.33;34.46
32642;BME280;19323;56.072;9.698;2023-03-05T04:14:21;100471.97;;;25.21;34.31
32642;BME280;19323;56.072;9.698;2023-03-05T04:16:46;100485.06;;;25.33;34.47
32642;BME280;19323;56.072;9.698;2023-03-05T04:19:11;100487.06;;;25.31;34.48
32642;BME280;19323;56.072;9.698;2023-03-05T04:21:37;100483.53;;;25.30;34.56
32642;BME280;19323;56.072;9.698;2023-03-05T04:24:02;100487.88;;;25.31;34.43
32642;BME280;19323;56.072;9.698;2023-03-05T04:26:27;100475.66;;;25.28;34.36
32642;BME280;19323;56.072;9.698;2023-03-05T04:28:52;100470.44;;;25.27;34.46
32642;BME280;19323;56.072;9.698;2023-03-05T04:31:17;100475.81;;;25.27;34.37
32642;BME280;19323;56.072;9.698;2023-03-05T04:33:44;100469.47;;;25.28;34.47
32642;BME280;19323;56.072;9.698;2023-03-05T04:36:09;100468.59;;;25.27;34.36
32642;BME280;19323;56.072;9.698;2023-03-05T04:38:34;100470.63;;;25.25;34.39
32642;BME280;19323;56.072;9.698;2023-03-05T04:41:00;100468.94;;;25.24;34.38
32642;BME280;19323;56.072;9.698;2023-03-05T04:43:25;100466.25;;;25.24;34.48
32642;BME280;19323;56.072;9.698;2023-03-05T04:45:50;100454.56;;;25.25;34.46
32642;BME280;19323;56.072;9.698;2023-03-05T04:48:15;100457.22;;;25.25;34.43
32642;BME280;19323;56.072;9.698;2023-03-05T04:50:41;100458.22;;;25.24;34.53
32642;BME280;19323;56.072;9.698;2023-03-05T04:53:06;100449.34;;;25.24;34.44
32642;BME280;19323;56.072;9.698;2023-03-05T04:55:31;100444.81;;;25.24;34.27
32642;BME280;19323;56.072;9.698;2023-03-05T04:57:57;100444.97;;;25.23;34.39
32642;BME280;19323;56.072;9.698;2023-03-05T05:00:22;100446.13;;;25.20;34.23
32642;BME280;19323;56.072;9.698;2023-03-05T05:02:48;100445.97;;;25.22;34.45
32642;BME280;19323;56.072;9.698;2023-03-05T05:05:14;100448.00;;;25.20;34.45
32642;BME280;19323;56.072;9.698;2023-03-05T05:07:40;100445.31;;;25.20;34.39
32642;BME280;19323;56.072;9.698;2023-03-05T05:10:05;100447.16;;;25.19;34.55
32642;BME280;19323;56.072;9.698;2023-03-05T05:12:32;100444.47;;;25.19;34.42
32642;BME280;19323;56.072;9.698;2023-03-05T05:14:57;100441.78;;;25.19;34.44
32642;BME280;19323;56.072;9.698;2023-03-05T05:17:22;100436.56;;;25.18;34.50
32642;BME280;19323;56.072;9.698;2023-03-05T05:19:47;100441.09;;;25.17;34.36
32642;BME280;19323;56.072;9.698;2023-03-05T05:22:13;100440.06;;;25.18;34.43
32642;BME280;19323;56.072;9.698;2023-03-05T05:24:38;100433.88;;;25.18;34.35
32642;BME280;19323;56.072;9.698;2023-03-05T05:27:03;100435.72;;;25.17;34.63
32642;BME280;19323;56.072;9.698;2023-03-05T05:29:28;100438.41;;;25.17;34.52
32642;BME280;19323;56.072;9.698;2023-03-05T05:31:53;100436.56;;;25.18;34.55
32642;BME280;19323;56.072;9.698;2023-03-05T05:34:20;100430.38;;;25.17;34.40
32642;BME280;19323;56.072;9.698;2023-03-05T05:36:45;100436.56;;;25.18;34.57
32642;BME280;19323;56.072;9.698;2023-03-05T05:39:10;100436.72;;;25.16;34.68
32642;BME280;19323;56.072;9.698;2023-03-05T05:41:35;100432.38;;;25.15;34.65
32642;BME280;19323;56.072;9.698;2023-03-05T05:44:01;100432.22;;;25.17;34.56
32642;BME280;19323;56.072;9.698;2023-03-05T05:46:26;100429.00;;;25.13;34.61
32642;BME280;19323;56.072;9.698;2023-03-05T05:48:52;100425.31;;;25.14;34.57
32642;BME280;19323;56.072;9.698;2023-03-05T05:51:19;100421.81;;;25.14;34.59
32642;BME280;19323;56.072;9.698;2023-03-05T05:53:44;100427.31;;;25.12;34.51
32642;BME280;19323;56.072;9.698;2023-03-05T05:56:10;100409.41;;;25.13;34.55
32642;BME280;19323;56.072;9.698;2023-03-05T05:58:36;100408.56;;;25.12;34.53
32642;BME280;19323;56.072;9.698;2023-03-05T06:01:02;100412.25;;;25.11;34.46
32642;BME280;19323;56.072;9.698;2023-03-05T06:03:35;100412.25;;;25.11;34.62
32642;BME280;19323;56.072;9.698;2023-03-05T06:06:00;100414.09;;;25.11;34.52
32642;BME280;19323;56.072;9.698;2023-03-05T06:08:25;100405.22;;;25.10;34.56
32642;BME280;19323;56.072;9.698;2023-03-05T06:10:54;100408.75;;;25.11;34.68
32642;BME280;19323;56.072;9.698;2023-03-05T06:13:19;100405.22;;;25.10;34.70
32642;BME280;19323;56.072;9.698;2023-03-05T06:15:44;100412.41;;;25.09;34.54
32642;BME280;19323;56.072;9.698;2023-03-05T06:18:10;100406.22;;;25.09;34.79
32642;BME280;19323;56.072;9.698;2023-03-05T06:20:35;100412.59;;;25.08;34.73
32642;BME280;19323;56.072;9.698;2023-03-05T06:23:00;100420.63;;;25.08;34.74
32642;BME280;19323;56.072;9.698;2023-03-05T06:25:25;100416.25;;;25.07;34.46
32642;BME280;19323;56.072;9.698;2023-03-05T06:27:50;100411.91;;;25.06;34.82
32642;BME280;19323;56.072;9.698;2023-03-05T06:30:15;100422.78;;;25.04;34.84
32642;BME280;19323;56.072;9.698;2023-03-05T06:32:41;100420.94;;;25.05;34.78
32642;BME280;19323;56.072;9.698;2023-03-05T06:35:06;100413.94;;;25.04;34.80
32642;BME280;19323;56.072;9.698;2023-03-05T06:37:32;100414.91;;;25.03;34.93
32642;BME280;19323;56.072;9.698;2023-03-05T06:39:57;100411.56;;;25.01;34.99
32642;BME280;19323;56.072;9.698;2023-03-05T06:42:22;100410.72;;;25.00;34.98
32642;BME280;19323;56.072;9.698;2023-03-05T06:44:47;100420.44;;;25.01;35.14
32642;BME280;19323;56.072;9.698;2023-03-05T06:47:13;100421.28;;;25.02;35.20
32642;BME280;19323;56.072;9.698;2023-03-05T06:49:38;100420.44;;;25.01;35.21
32642;BME280;19323;56.072;9.698;2023-03-05T06:52:04;100426.13;;;24.98;35.36
32642;BME280;19323;56.072;9.698;2023-03-05T06:54:29;100430.66;;;24.98;35.38
32642;BME280;19323;56.072;9.698;2023-03-05T06:56:54;100421.94;;;24.96;35.41
32642;BME280;19323;56.072;9.698;2023-03-05T06:59:19;100425.59;;;24.95;35.60
32642;BME280;19323;56.072;9.698;2023-03-05T07:01:45;100424.75;;;24.94;35.69
32642;BME280;19323;56.072;9.698;2023-03-05T07:04:11;100424.63;;;24.96;35.73
32642;BME280;19323;56.072;9.698;2023-03-05T07:06:37;100424.63;;;24.96;35.75
32642;BME280;19323;56.072;9.698;2023-03-05T07:09:03;100423.94;;;24.94;35.91
32642;BME280;19323;56.072;9.698;2023-03-05T07:11:29;100426.63;;;24.94;35.78
32642;BME280;19323;56.072;9.698;2023-03-05T07:13:54;100419.59;;;24.93;35.94
32642;BME280;19323;56.072;9.698;2023-03-05T07:16:21;100420.56;;;24.92;36.05
32642;BME280;19323;56.072;9.698;2023-03-05T07:18:46;100416.06;;;24.92;35.97
32642;BME280;19323;56.072;9.698;2023-03-05T07:21:19;100418.06;;;24.90;35.89
32642;BME280;19323;56.072;9.698;2023-03-05T07:23:44;100412.69;;;24.90;36.09
32642;BME280;19323;56.072;9.698;2023-03-05T07:26:10;100421.59;;;24.91;35.97
32642;BME280;19323;56.072;9.698;2023-03-05T07:28:35;100409.03;;;24.91;36.18
32642;BME280;19323;56.072;9.698;2023-03-05T07:31:02;100410.69;;;24.92;35.97
32642;BME280;19323;56.072;9.698;2023-03-05T07:33:27;100379.97;;;24.70;36.14
32642;BME280;19323;56.072;9.698;2023-03-05T07:35:52;100380.66;;;24.72;36.18
32642;BME280;19323;56.072;9.698;2023-03-05T07:38:18;100410.53;;;24.94;36.06
32642;BME280;19323;56.072;9.698;2023-03-05T07:40:43;100417.56;;;24.95;36.56
32642;BME280;19323;56.072;9.698;2023-03-05T07:43:08;100418.56;;;24.94;36.24
32642;BME280;19323;56.072;9.698;2023-03-05T07:45:33;100418.56;;;24.94;36.41
32642;BME280;19323;56.072;9.698;2023-03-05T07:47:58;100406.84;;;24.95;36.68
32642;BME280;19323;56.072;9.698;2023-03-05T07:50:24;100404.16;;;24.95;36.63
32642;BME280;19323;56.072;9.698;2023-03-05T07:52:49;100408.53;;;24.96;36.71
32642;BME280;19323;56.072;9.698;2023-03-05T07:55:14;100404.84;;;24.97;36.46
32642;BME280;19323;56.072;9.698;2023-03-05T07:57:39;100410.88;;;24.99;36.68
32642;BME280;19323;56.072;9.698;2023-03-05T08:00:05;100412.56;;;25.00;36.62
32642;BME280;19323;56.072;9.698;2023-03-05T08:02:30;100408.72;;;25.02;36.47
32642;BME280;19323;56.072;9.698;2023-03-05T08:04:55;100407.03;;;25.01;36.40
32642;BME280;19323;56.072;9.698;2023-03-05T08:07:20;100409.56;;;25.03;36.28
32642;BME280;19323;56.072;9.698;2023-03-05T08:09:46;100406.03;;;25.02;36.39
32642;BME280;19323;56.072;9.698;2023-03-05T08:12:11;100406.72;;;25.04;36.37
32642;BME280;19323;56.072;9.698;2023-03-05T08:14:36;100394.16;;;25.05;36.36
32642;BME280;19323;56.072;9.698;2023-03-05T08:17:02;100395.84;;;25.06;36.41
32642;BME280;19323;56.072;9.698;2023-03-05T08:19:27;100392.97;;;25.07;36.20
32642;BME280;19323;56.072;9.698;2023-03-05T08:21:52;100389.31;;;25.08;36.31
32642;BME280;19323;56.072;9.698;2023-03-05T08:24:18;100390.16;;;25.09;36.25
32642;BME280;19323;56.072;9.698;2023-03-05T08:26:43;100399.84;;;25.10;36.10
32642;BME280;19323;56.072;9.698;2023-03-05T08:29:09;100398.03;;;25.11;35.99
32642;BME280;19323;56.072;9.698;2023-03-05T08:31:34;100398.84;;;25.11;35.68
32642;BME280;19323;56.072;9.698;2023-03-05T08:33:59;100396.19;;;25.11;35.60
32642;BME280;19323;56.072;9.698;2023-03-05T08:36:25;100392.47;;;25.12;35.46
32642;BME280;19323;56.072;9.698;2023-03-05T08:38:50;100398.69;;;25.13;35.18
32642;BME280;19323;56.072;9.698;2023-03-05T08:41:16;100395.16;;;25.12;35.11
32642;BME280;19323;56.072;9.698;2023-03-05T08:43:42;100387.78;;;25.14;35.21
32642;BME280;19323;56.072;9.698;2023-03-05T08:46:07;100389.50;;;25.15;35.19
32642;BME280;19323;56.072;9.698;2023-03-05T08:48:33;100391.00;;;25.18;34.97
32642;BME280;19323;56.072;9.698;2023-03-05T08:51:05;100382.84;;;25.19;34.96
32642;BME280;19323;56.072;9.698;2023-03-05T08:53:31;100381.81;;;25.20;34.65
32642;BME280;19323;56.072;9.698;2023-03-05T08:55:56;100381.50;;;25.23;34.70
32642;BME280;19323;56.072;9.698;2023-03-05T08:58:22;100375.13;;;25.24;34.64
32642;BME280;19323;56.072;9.698;2023-03-05T09:00:47;100366.09;;;25.25;34.50
32642;BME280;19323;56.072;9.698;2023-03-05T09:03:12;100373.94;;;25.27;34.46
32642;BME280;19323;56.072;9.698;2023-03-05T09:05:37;100363.06;;;25.28;34.16
32642;BME280;19323;56.072;9.698;2023-03-05T09:08:03;100367.25;;;25.31;34.08
32642;BME280;19323;56.072;9.698;2023-03-05T09:10:28;100359.06;;;25.33;33.99
32642;BME280;19323;56.072;9.698;2023-03-05T09:12:53;100366.91;;;25.34;33.89
32642;BME280;19323;56.072;9.698;2023-03-05T09:15:18;100365.75;;;25.37;34.06
32642;BME280;19323;56.072;9.698;2023-03-05T09:17:43;100358.56;;;25.37;33.59
32642;BME280;19323;56.072;9.698;2023-03-05T09:20:10;100348.66;;;25.38;33.85
32642;BME280;19323;56.072;9.698;2023-03-05T09:22:36;100350.34;;;25.39;33.82
32642;BME280;19323;56.072;9.698;2023-03-05T09:25:01;100353.69;;;25.41;33.61
32642;BME280;19323;56.072;9.698;2023-03-05T09:27:27;100348.34;;;25.41;33.73
32642;BME280;19323;56.072;9.698;2023-03-05T09:29:53;100352.69;;;25.42;33.72
32642;BME280;19323;56.072;9.698;2023-03-05T09:32:19;100348.00;;;25.44;33.78
32642;BME280;19323;56.072;9.698;2023-03-05T09:34:44;100350.31;;;25.47;33.79
32642;BME280;19323;56.072;9.698;2023-03-05T09:37:09;100346.66;;;25.48;33.66
32642;BME280;19323;56.072;9.698;2023-03-05T09:39:35;100343.81;;;25.49;33.43
32642;BME280;19323;56.072;9.698;2023-03-05T09:42:11;100337.44;;;25.51;33.68
32642;BME280;19323;56.072;9.698;2023-03-05T09:45:02;100342.44;;;25.54;33.60
32642;BME280;19323;56.072;9.698;2023-03-05T09:50:19;100340.63;;;25.54;33.52
32642;BME280;19323;56.072;9.698;2023-03-05T09:52:52;100338.78;;;25.55;33.48
32642;BME280;19323;56.072;9.698;2023-03-05T09:55:23;100342.44;;;25.54;33.47
32642;BME280;19323;56.072;9.698;2023-03-05T09:57:50;100340.63;;;25.54;33.46
32642;BME280;19323;56.072;9.698;2023-03-05T10:00:22;100344.97;;;25.55;33.31
32642;BME280;19323;56.072;9.698;2023-03-05T10:02:51;100342.97;;;25.57;33.41
32642;BME280;19323;56.072;9.698;2023-03-05T10:05:21;100333.06;;;25.58;33.22
32642;BME280;19323;56.072;9.698;2023-03-05T10:08:00;100334.75;;;25.59;33.49
32642;BME280;19323;56.072;9.698;2023-03-05T10:10:35;100325.53;;;25.61;33.45
32642;BME280;19323;56.072;9.698;2023-03-05T10:13:04;100326.19;;;25.63;33.25
32642;BME280;19323;56.072;9.698;2023-03-05T10:18:09;100319.13;;;25.70;32.88
32642;BME280;19323;56.072;9.698;2023-03-05T10:20:44;100325.16;;;25.73;32.99
32642;BME280;19323;56.072;9.698;2023-03-05T10:31:23;100313.09;;;25.77;32.53
32642;BME280;19323;56.072;9.698;2023-03-05T10:34:00;100314.75;;;25.78;32.63
32642;BME280;19323;56.072;9.698;2023-03-05T10:36:46;100305.88;;;25.77;32.57
32642;BME280;19323;56.072;9.698;2023-03-05T10:41:44;100311.06;;;25.79;32.79
32642;BME280;19323;56.072;9.698;2023-03-05T10:44:19;100305.56;;;25.80;32.94
32642;BME280;19323;56.072;9.698;2023-03-05T10:46:45;100309.06;;;25.81;32.75
32642;BME280;19323;56.072;9.698;2023-03-05T10:51:43;100302.03;;;25.88;32.71
32642;BME280;19323;56.072;9.698;2023-03-05T10:54:17;100301.03;;;25.89;32.81
32642;BME280;19323;56.072;9.698;2023-03-05T10:56:48;100292.78;;;25.90;33.08
32642;BME280;19323;56.072;9.698;2023-03-05T10:59:13;100288.09;;;25.93;32.78
32642;BME280;19323;56.072;9.698;2023-03-05T11:01:38;100280.88;;;25.93;33.11
32642;BME280;19323;56.072;9.698;2023-03-05T11:04:08;100278.03;;;25.95;32.88
32642;BME280;19323;56.072;9.698;2023-03-05T11:06:48;100282.56;;;25.94;33.21
32642;BME280;19323;56.072;9.698;2023-03-05T11:09:22;100271.66;;;25.96;32.77
32642;BME280;19323;56.072;9.698;2023-03-05T11:14:38;100233.63;;;25.76;32.76
32642;BME280;19323;56.072;9.698;2023-03-05T11:19:47;100258.72;;;25.99;32.81
32642;BME280;19323;56.072;9.698;2023-03-05T11:22:20;100262.06;;;26.01;32.99
32642;BME280;19323;56.072;9.698;2023-03-05T11:25:10;100260.22;;;26.02;33.03
32642;BME280;19323;56.072;9.698;2023-03-05T11:27:40;100257.38;;;26.03;32.60
32642;BME280;19323;56.072;9.698;2023-03-05T11:30:30;100254.69;;;26.03;32.83
32642;BME280;19323;56.072;9.698;2023-03-05T11:33:06;100250.50;;;26.01;32.50
32642;BME280;19323;56.072;9.698;2023-03-05T11:35:33;100249.97;;;26.05;32.72
32642;BME280;19323;56.072;9.698;2023-03-05T11:38:02;100238.25;;;26.06;32.60
32642;BME280;19323;56.072;9.698;2023-03-05T11:40:28;100239.91;;;26.07;32.69
32642;BME280;19323;56.072;9.698;2023-03-05T11:42:58;100244.25;;;26.08;32.73
32642;BME280;19323;56.072;9.698;2023-03-05T11:45:24;100241.56;;;26.08;32.50
32642;BME280;19323;56.072;9.698;2023-03-05T11:55:27;100234.84;;;26.13;32.90
32642;BME280;19323;56.072;9.698;2023-03-05T12:00:36;100221.41;;;26.13;32.82
32642;BME280;19323;56.072;9.698;2023-03-05T12:03:08;100225.78;;;26.14;32.72
32642;BME280;19323;56.072;9.698;2023-03-05T12:05:35;100229.13;;;26.16;32.80
32642;BME280;19323;56.072;9.698;2023-03-05T12:08:03;100219.22;;;26.16;32.86
32642;BME280;19323;56.072;9.698;2023-03-05T12:10:29;100223.56;;;26.17;32.77
32642;BME280;19323;56.072;9.698;2023-03-05T12:15:42;100207.31;;;26.19;32.94
32642;BME280;19323;56.072;9.698;2023-03-05T12:20:45;100204.63;;;26.19;33.00
32642;BME280;19323;56.072;9.698;2023-03-05T12:23:13;100194.72;;;26.19;33.14
32642;BME280;19323;56.072;9.698;2023-03-05T12:25:49;100206.09;;;26.21;32.98
32642;BME280;19323;56.072;9.698;2023-03-05T12:28:16;100198.72;;;26.23;32.97
32642;BME280;19323;56.072;9.698;2023-03-05T12:31:01;100195.88;;;26.25;33.31
32642;BME280;19323;56.072;9.698;2023-03-05T12:36:16;100181.25;;;26.27;33.41
32642;BME280;19323;56.072;9.698;2023-03-05T12:38:39;100177.38;;;26.30;33.40
32642;BME280;19323;56.072;9.698;2023-03-05T12:49:07;100166.28;;;26.33;33.40
32642;BME280;19323;56.072;9.698;2023-03-05T12:51:51;100176.00;;;26.34;33.54
32642;BME280;19323;56.072;9.698;2023-03-05T12:54:31;100167.13;;;26.34;33.32
32642;BME280;19323;56.072;9.698;2023-03-05T12:57:02;100172.50;;;26.34;33.09
32642;BME280;19323;56.072;9.698;2023-03-05T12:59:34;100156.38;;;26.34;32.98
32642;BME280;19323;56.072;9.698;2023-03-05T13:02:02;100149.97;;;26.35;33.02
32642;BME280;19323;56.072;9.698;2023-03-05T13:04:33;100148.16;;;26.35;32.91
32642;BME280;19323;56.072;9.698;2023-03-05T13:07:11;100148.16;;;26.35;32.83
32642;BME280;19323;56.072;9.698;2023-03-05T13:09:37;100153.31;;;26.37;32.61
32642;BME280;19323;56.072;9.698;2023-03-05T13:12:03;100148.44;;;26.40;32.57
32642;BME280;19323;56.072;9.698;2023-03-05T13:14:36;100144.94;;;26.40;33.02
32642;BME280;19323;56.072;9.698;2023-03-05T13:17:22;100143.06;;;26.40;33.11
32642;BME280;19323;56.072;9.698;2023-03-05T13:19:48;100140.22;;;26.42;33.04
32642;BME280;19323;56.072;9.698;2023-03-05T13:22:13;100140.88;;;26.44;32.78
32642;BME280;19323;56.072;9.698;2023-03-05T13:24:38;100129.94;;;26.45;32.89
32642;BME280;19323;56.072;9.698;2023-03-05T13:27:17;100137.81;;;26.47;33.16
32642;BME280;19323;56.072;9.698;2023-03-05T13:29:50;100126.91;;;26.48;32.82
32642;BME280;19323;56.072;9.698;2023-03-05T13:32:22;100122.19;;;26.50;33.07
32642;BME280;19323;56.072;9.698;2023-03-05T13:34:49;100122.00;;;26.52;32.66
32642;BME280;19323;56.072;9.698;2023-03-05T13:37:15;100123.50;;;26.55;32.89
32642;BME280;19323;56.072;9.698;2023-03-05T13:42:14;100109.75;;;26.58;32.67
32642;BME280;19323;56.072;9.698;2023-03-05T13:44:40;100112.91;;;26.61;32.92
32642;BME280;19323;56.072;9.698;2023-03-05T13:49:33;100099.75;;;26.66;32.58